Boston Pilot Mystic — VHF20 — position and weather

sailwx.info

Track history (hours):
 
Tides and Currents Weather Stations Pressure Air Temp Water Temp Dewpoint Dewpoint Depression Visibility Wind Speed Wind Dir Waves Ship Positions

Boston Pilot Mystic

Last reported at 2017-Dec-11 16:18 UTC. Time now 2017-Dec-12 04:20 UTC.
Position N 42°22' W 071°02'.

Length 16 m; draft 1.5 m.

Type: Pilot. MMSI: 367029020.

Date/timePositionNaut miles runAvg speedWind from/ knotsBaromVisibWave heightAir tempDewpointWater temp
2017-Dec-11 16:18N 42°22' W 071°02'0 0.0
2017-Dec-11 15:52N 42°22' W 071°02'0 0.0
2017-Dec-11 15:30N 42°22' W 071°02'0 0.0
2017-Dec-11 14:57N 42°22' W 071°02'0 0.0
2017-Dec-11 09:32N 42°22' W 071°02'0 0.0
2017-Dec-11 09:08N 42°22' W 071°02'0 0.0
2017-Dec-11 08:46N 42°22' W 071°02'0 0.0
2017-Dec-11 07:03N 42°22' W 071°02'0 0.1
2017-Dec-11 07:00N 42°22' W 071°02'0 0.0
2017-Dec-11 06:21N 42°22' W 071°02'0 0.0
2017-Dec-11 05:47N 42°22' W 071°02'0 0.0
2017-Dec-11 05:29N 42°22' W 071°02'0 0.0
2017-Dec-11 05:01N 42°22' W 071°02'0 0.0
2017-Dec-11 04:26N 42°22' W 071°02'0 0.0
2017-Dec-11 03:49N 42°22' W 071°02'0 0.0
2017-Dec-11 03:28N 42°22' W 071°02'0 0.0
2017-Dec-11 03:00N 42°22' W 071°02'0 0.0
2017-Dec-11 01:47N 42°22' W 071°02'0 0.0
2017-Dec-11 01:28N 42°22' W 071°02'0 0.0
2017-Dec-11 00:50N 42°22' W 071°02'0 0.0
2017-Dec-11 00:28N 42°22' W 071°02'0 0.0
2017-Dec-10 23:45N 42°22' W 071°02'0 0.0
2017-Dec-10 23:30N 42°22' W 071°02'0 0.0
2017-Dec-10 22:59N 42°22' W 071°02'1 2.7
2017-Dec-10 22:30N 42°21' W 071°01'612.0
2017-Dec-10 22:00N 42°23' W 070°54'619.3
2017-Dec-10 21:41N 42°22' W 071°02'314.4
2017-Dec-10 21:29N 42°20' W 070°59'3 5.5
2017-Dec-10 20:57N 42°22' W 071°02'0 0.0
2017-Dec-10 20:25N 42°22' W 071°02'0 0.0
2017-Dec-10 19:56N 42°22' W 071°02'0 0.0
2017-Dec-10 19:30N 42°22' W 071°02'710.6
2017-Dec-10 18:49N 42°25' W 070°53'410.3
2017-Dec-10 18:27N 42°21' W 070°56'4 9.4
2017-Dec-10 18:00N 42°21' W 071°01'1 2.3
2017-Dec-10 17:28N 42°22' W 071°02'0 0.0
2017-Dec-10 16:59N 42°22' W 071°02'0 0.0
2017-Dec-10 16:30N 42°22' W 071°02'0 0.0
2017-Dec-10 15:59N 42°22' W 071°02'0 0.0
2017-Dec-10 15:30N 42°22' W 071°02'0 0.0
2017-Dec-10 15:00N 42°22' W 071°02'0 0.0
2017-Dec-10 14:28N 42°22' W 071°02'0 0.0
2017-Dec-10 14:00N 42°22' W 071°02'0 0.0
2017-Dec-10 13:26N 42°22' W 071°02'0 0.0
2017-Dec-10 12:59N 42°22' W 071°02'5 7.9
2017-Dec-10 12:23N 42°21' W 070°55'511.7
2017-Dec-10 11:58N 42°22' W 071°02'744.6
2017-Dec-10 11:49N 42°24' W 070°53'712.0
2017-Dec-10 11:15N 42°22' W 071°02'1 5.9
2017-Dec-10 11:06N 42°21' W 071°01'1 9.5
2017-Dec-10 11:00N 42°22' W 071°02'0 0.3
2017-Dec-10 10:53N 42°22' W 071°02'0 0.0
2017-Dec-10 10:28N 42°22' W 071°02'0 0.1
2017-Dec-10 10:23N 42°22' W 071°02'0 0.0
2017-Dec-10 10:00N 42°22' W 071°02'0 0.0
2017-Dec-10 09:50N 42°22' W 071°02'0 0.0
2017-Dec-10 09:29N 42°22' W 071°02'0 0.0
2017-Dec-10 09:14N 42°22' W 071°02'0 0.0
2017-Dec-10 08:59N 42°22' W 071°02'0 0.0
2017-Dec-10 08:45N 42°22' W 071°02'0 0.0
2017-Dec-10 08:28N 42°22' W 071°02'0 0.3
2017-Dec-10 08:27N 42°22' W 071°02'7 9.3
2017-Dec-10 07:41N 42°23' W 070°52'310.7
2017-Dec-10 07:27N 42°24' W 070°49'910.0
2017-Dec-10 06:32N 42°21' W 071°01'1 0.9
2017-Dec-10 05:33N 42°22' W 071°02'0 0.0
2017-Dec-10 05:31N 42°22' W 071°02'0 0.0
2017-Dec-10 04:57N 42°22' W 071°02'0 0.0
2017-Dec-10 04:29N 42°22' W 071°02'0 0.0
2017-Dec-10 03:55N 42°22' W 071°02'0 0.0
2017-Dec-10 03:26N 42°22' W 071°02'0 0.0
2017-Dec-10 02:59N 42°22' W 071°02'0 0.0
2017-Dec-10 01:52N 42°22' W 071°02'0 0.0
2017-Dec-10 01:27N 42°22' W 071°02'0 0.0
2017-Dec-10 00:57N 42°22' W 071°02'0 0.0
2017-Dec-10 00:25N 42°22' W 071°02'0 0.0
2017-Dec-09 23:55N 42°22' W 071°02'0 0.0
2017-Dec-09 23:29N 42°22' W 071°02'0 0.0
2017-Dec-09 22:51N 42°22' W 071°02'0 0.0
2017-Dec-09 20:41N 42°22' W 071°02'5305.4
2017-Dec-09 20:40N 42°22' W 070°55'516.4
2017-Dec-09 20:20N 42°22' W 071°02'618.8
2017-Dec-09 20:02N 42°22' W 070°54'0 5.2
2017-Dec-09 20:00N 42°22' W 070°54'6154.4
2017-Dec-09 19:58N 42°22' W 071°02'0 0.0
2017-Dec-09 19:23N 42°22' W 071°02'0 0.0
2017-Dec-09 18:55N 42°22' W 071°02'1 6.7
2017-Dec-09 18:48N 42°21' W 071°01'1 3.0
2017-Dec-09 18:30N 42°22' W 071°02'0 0.1
2017-Dec-09 18:26N 42°22' W 071°02'0 0.0
2017-Dec-09 18:00N 42°22' W 071°02'0 0.1
2017-Dec-09 17:58N 42°22' W 071°02'0 0.0
2017-Dec-09 17:21N 42°22' W 071°02'0 0.1
2017-Dec-09 17:17N 42°22' W 071°02'0 0.2
2017-Dec-09 16:53N 42°22' W 071°02'1 2.1
2017-Dec-09 16:21N 42°21' W 071°01'1 0.8
2017-Dec-09 14:49N 42°22' W 071°02'0 0.2
2017-Dec-09 14:19N 42°22' W 071°02'0 0.3
2017-Dec-09 13:56N 42°22' W 071°02'5186.9
2017-Dec-09 13:54N 42°22' W 070°55'0 0.9
2017-Dec-09 13:30N 42°22' W 070°56'4119.6
2017-Dec-09 13:28N 42°22' W 071°02'1 2.5
2017-Dec-09 13:00N 42°21' W 071°01'147.9
2017-Dec-09 12:59N 42°22' W 071°02'0 0.0
2017-Dec-09 12:29N 42°22' W 071°02'0 0.0
2017-Dec-09 12:01N 42°22' W 071°02'0 0.0
2017-Dec-09 12:00N 42°22' W 071°02'0 0.1
2017-Dec-09 11:56N 42°22' W 071°02'1 2.1
2017-Dec-09 11:30N 42°22' W 071°03'1 1.4
2017-Dec-09 10:59N 42°22' W 071°02'0 2.9
2017-Dec-09 10:53N 42°22' W 071°02'0 0.0
2017-Dec-09 10:30N 42°22' W 071°02'0 0.4
2017-Dec-09 10:28N 42°22' W 071°02'0 0.0
2017-Dec-09 09:59N 42°22' W 071°02'0 0.0
2017-Dec-09 09:30N 42°22' W 071°02'0 0.0
2017-Dec-09 08:57N 42°22' W 071°02'0 0.0
2017-Dec-09 08:17N 42°22' W 071°02'0 0.0
2017-Dec-09 08:00N 42°22' W 071°02'0 0.0
2017-Dec-09 07:29N 42°22' W 071°02'0 0.0
2017-Dec-09 07:00N 42°22' W 071°02'3 6.3
2017-Dec-09 06:29N 42°20' W 070°58'4 6.6
2017-Dec-09 05:50N 42°23' W 070°53'2 5.1
2017-Dec-09 05:30N 42°23' W 070°51'711.8
2017-Dec-09 04:54N 42°21' W 071°00'1 1.5
2017-Dec-09 04:28N 42°20' W 070°59'511.1
2017-Dec-09 04:00N 42°23' W 070°54'2 3.7
2017-Dec-09 03:25N 42°22' W 070°56'510.3
2017-Dec-09 02:59N 42°21' W 071°02'0 0.4
2017-Dec-09 02:16N 42°22' W 071°02'0 0.0
2017-Dec-09 01:55N 42°22' W 071°02'0 0.0
2017-Dec-09 01:18N 42°22' W 071°02'0 0.0
2017-Dec-09 00:32N 42°22' W 071°02'0 0.0
2017-Dec-09 00:30N 42°22' W 071°02'0 0.0
2017-Dec-08 23:51N 42°22' W 071°02'0 0.0
2017-Dec-08 23:20N 42°22' W 071°02'0 0.0
2017-Dec-08 23:00N 42°22' W 071°02'0 0.0
2017-Dec-08 22:29N 42°22' W 071°02'0 0.0
2017-Dec-08 21:59N 42°22' W 071°02'0 0.0
2017-Dec-08 21:26N 42°22' W 071°02'0 0.0
2017-Dec-08 20:53N 42°22' W 071°02'0 0.0
2017-Dec-08 20:29N 42°22' W 071°02'0 0.0
2017-Dec-08 19:59N 42°22' W 071°02'3 5.0
2017-Dec-08 19:17N 42°20' W 070°58'3 7.2
2017-Dec-08 18:54N 42°22' W 070°55'1 2.2
2017-Dec-08 18:29N 42°22' W 070°56'3 7.1
2017-Dec-08 18:00N 42°24' W 070°52'8 6.9
2017-Dec-08 16:55N 42°21' W 071°02'1 1.1
2017-Dec-08 16:26N 42°22' W 071°02'0 0.0
2017-Dec-08 16:00N 42°22' W 071°02'0 0.0
2017-Dec-08 15:24N 42°22' W 071°02'0 0.0
2017-Dec-08 15:00N 42°22' W 071°02'0 0.0
2017-Dec-08 14:30N 42°22' W 071°02'0 0.0
2017-Dec-08 14:00N 42°22' W 071°02'0 0.0
2017-Dec-08 13:30N 42°22' W 071°02'1 2.8
2017-Dec-08 13:00N 42°23' W 071°03'3 4.9
2017-Dec-08 12:29N 42°21' W 071°01'5 6.6
2017-Dec-08 11:48N 42°22' W 070°55'2 6.0
2017-Dec-08 11:30N 42°23' W 070°54'3 6.8
2017-Dec-08 11:00N 42°23' W 070°49'5 9.2
2017-Dec-08 10:25N 42°21' W 070°56'410.5
2017-Dec-08 10:01N 42°21' W 071°02'0 0.8
2017-Dec-08 09:30N 42°22' W 071°02'0 0.0
2017-Dec-08 09:00N 42°22' W 071°02'0 0.0
2017-Dec-08 08:22N 42°22' W 071°02'0 0.0
2017-Dec-08 07:57N 42°22' W 071°02'0 0.0
2017-Dec-08 07:29N 42°22' W 071°02'0 0.0
2017-Dec-08 06:58N 42°22' W 071°02'3 7.3
2017-Dec-08 06:30N 42°20' W 070°58'6 9.8
2017-Dec-08 05:56N 42°24' W 070°52'1 2.1
2017-Dec-08 05:30N 42°23' W 070°52'2 4.3
2017-Dec-08 04:57N 42°22' W 070°55'3 7.7
2017-Dec-08 04:30N 42°24' W 070°51'4 7.7
2017-Dec-08 03:59N 42°22' W 070°55'4 9.4
2017-Dec-08 03:31N 42°21' W 071°01'1 1.3
2017-Dec-08 02:28N 42°22' W 071°02'0 0.0
2017-Dec-08 02:00N 42°22' W 071°02'0 0.1
2017-Dec-08 01:48N 42°22' W 071°02'0 0.1
2017-Dec-08 01:30N 42°22' W 071°02'0 1.4
2017-Dec-08 01:29N 42°22' W 071°02'0 0.0
2017-Dec-08 00:58N 42°22' W 071°02'0 1.1
2017-Dec-08 00:57N 42°22' W 071°02'0 0.0
2017-Dec-08 00:27N 42°22' W 071°02'0 0.1
2017-Dec-08 00:16N 42°22' W 071°02'0 0.0
2017-Dec-07 23:55N 42°22' W 071°02'0 0.8
2017-Dec-07 23:54N 42°22' W 071°02'0 0.0
2017-Dec-07 23:26N 42°22' W 071°02'0 0.1
2017-Dec-07 23:10N 42°22' W 071°02'0 0.0
2017-Dec-07 22:56N 42°22' W 071°02'0 0.1
2017-Dec-07 22:49N 42°22' W 071°02'0 0.0
2017-Dec-07 22:23N 42°22' W 071°02'0 0.2
2017-Dec-07 22:16N 42°22' W 071°02'0 0.0
2017-Dec-07 21:56N 42°22' W 071°02'021.6
2017-Dec-07 21:56N 42°22' W 071°02'0 0.0
2017-Dec-07 21:29N 42°22' W 071°02'0 0.0
2017-Dec-07 21:00N 42°22' W 071°02'0 0.0
2017-Dec-07 15:05N 42°22' W 071°02'0 0.0
2017-Dec-07 14:44N 42°22' W 071°02'0 0.0
2017-Dec-07 14:27N 42°22' W 071°02'0 0.0
2017-Dec-07 13:58N 42°22' W 071°02'0 0.0
2017-Dec-07 13:22N 42°22' W 071°02'0 0.0
2017-Dec-07 12:56N 42°22' W 071°02'0 0.8
2017-Dec-07 12:55N 42°22' W 071°02'0 0.0
2017-Dec-07 12:24N 42°22' W 071°02'013.0
2017-Dec-07 12:24N 42°22' W 071°02'0 0.0
2017-Dec-07 12:00N 42°22' W 071°02'0 0.0
2017-Dec-07 11:28N 42°22' W 071°02'0 0.0
2017-Dec-07 11:06N 42°22' W 071°02'0 0.0
2017-Dec-07 10:52N 42°22' W 071°02'0 0.3
2017-Dec-07 10:48N 42°22' W 071°02'0 0.0
2017-Dec-07 10:29N 42°22' W 071°02'0 0.0
2017-Dec-07 08:59N 42°22' W 071°02'0 0.0
2017-Dec-07 07:46N 42°22' W 071°02'0 0.0
2017-Dec-07 07:08N 42°22' W 071°02'0 0.0
2017-Dec-07 06:54N 42°22' W 071°02'0 0.0
2017-Dec-07 06:25N 42°22' W 071°02'0 0.0
2017-Dec-07 05:55N 42°22' W 071°02'0 0.0
2017-Dec-07 05:30N 42°22' W 071°02'0 0.1
2017-Dec-07 05:18N 42°22' W 071°02'0 0.0
2017-Dec-07 04:59N 42°22' W 071°02'0 0.8
2017-Dec-07 04:58N 42°22' W 071°02'0 0.0
2017-Dec-07 04:29N 42°22' W 071°02'611.6
2017-Dec-07 03:59N 42°22' W 070°54'4 6.1
2017-Dec-07 03:24N 42°20' W 070°58'386.6
2017-Dec-07 03:22N 42°22' W 071°02'0 0.0
2017-Dec-07 02:56N 42°22' W 071°02'0 0.0
2017-Dec-07 02:24N 42°22' W 071°02'0 0.0
2017-Dec-07 02:03N 42°22' W 071°02'0 0.0
2017-Dec-07 01:53N 42°22' W 071°02'0 0.0
2017-Dec-07 01:21N 42°22' W 071°02'0 0.0
2017-Dec-07 01:03N 42°22' W 071°02'0 4.9
2017-Dec-07 01:00N 42°22' W 071°02'611.3
2017-Dec-07 00:30N 42°22' W 070°54'510.3
2017-Dec-07 00:00N 42°20' W 071°00'2 4.6
2017-Dec-06 23:35N 42°22' W 071°02'0 0.2
2017-Dec-06 23:30N 42°22' W 071°02'0 0.1
2017-Dec-06 23:21N 42°22' W 071°02'0 0.0
2017-Dec-06 22:58N 42°22' W 071°02'0 0.3
2017-Dec-06 22:54N 42°22' W 071°02'0 0.0
2017-Dec-06 22:23N 42°22' W 071°02'0 0.0
2017-Dec-06 21:39N 42°22' W 071°02'0 0.0
2017-Dec-06 21:06N 42°22' W 071°02'0 0.0
2017-Dec-06 21:00N 42°22' W 071°02'  
2017-Dec-04 10:30N 42°24' W 070°54'617.1
2017-Dec-04 10:09N 42°22' W 071°02'534.8
2017-Dec-04 10:00N 42°23' W 070°55'592.4
2017-Dec-04 09:56N 42°22' W 071°02'613.2
2017-Dec-04 09:30N 42°24' W 070°55'631.8
2017-Dec-04 09:20N 42°22' W 071°02'617.8
2017-Dec-04 09:00N 42°24' W 070°55'6171.4
2017-Dec-04 08:58N 42°22' W 071°02'612.5
2017-Dec-04 08:30N 42°24' W 070°55'677.7
2017-Dec-04 08:26N 42°22' W 071°02'613.8
2017-Dec-04 08:00N 42°25' W 070°55'2 3.5
2017-Dec-04 07:30N 42°25' W 070°53'2 4.8
2017-Dec-04 07:00N 42°24' W 070°50'2 4.1
2017-Dec-04 06:29N 42°23' W 070°52'714.0
2017-Dec-04 06:00N 42°21' W 071°01'1 1.3
2017-Dec-04 05:06N 42°22' W 071°02'0 0.0
2017-Dec-04 04:59N 42°22' W 071°02'0 0.0
2017-Dec-04 04:30N 42°22' W 071°02'0 0.0
2017-Dec-04 03:56N 42°22' W 071°02'0 0.0
2017-Dec-04 03:21N 42°22' W 071°02'0 0.0
2017-Dec-04 03:07N 42°22' W 071°02'327.8
2017-Dec-04 03:00N 42°20' W 070°58'310.4
2017-Dec-04 02:42N 42°22' W 071°02'523.2
2017-Dec-04 02:30N 42°21' W 070°56'527.1
2017-Dec-04 02:20N 42°22' W 071°02'0 0.3
2017-Dec-04 02:00N 42°22' W 071°02'0 0.2
2017-Dec-04 01:28N 42°22' W 071°02'0 0.0
2017-Dec-04 01:01N 42°22' W 071°02'0 0.0
2017-Dec-04 00:25N 42°22' W 071°02'0 0.0
2017-Dec-03 23:59N 42°22' W 071°02'0 0.0
2017-Dec-03 23:26N 42°22' W 071°02'0 0.0
2017-Dec-03 22:42N 42°22' W 071°02'0 0.0
2017-Dec-03 22:14N 42°22' W 071°02'0 0.0
2017-Dec-03 21:58N 42°22' W 071°02'6 4.9
2017-Dec-03 20:42N 42°19' W 070°55'315.6
2017-Dec-03 20:30N 42°20' W 070°51'5 9.1
2017-Dec-03 20:00N 42°20' W 070°57'4 1.1
2017-Dec-03 16:22N 42°22' W 071°02'0 0.1
2017-Dec-03 14:47N 42°22' W 071°02'0 0.4
2017-Dec-03 14:44N 42°22' W 071°02'0 0.0
2017-Dec-03 14:30N 42°22' W 071°02'0 0.2
2017-Dec-03 14:23N 42°22' W 071°02'0 0.0
2017-Dec-03 13:59N 42°22' W 071°02'0 1.7
2017-Dec-03 13:59N 42°22' W 071°02'0 0.5
2017-Dec-03 13:30N 42°22' W 071°02'0 9.7
2017-Dec-03 13:29N 42°22' W 071°02'816.4
2017-Dec-03 13:00N 42°23' W 070°51'8461.4
2017-Dec-03 12:59N 42°22' W 071°02'1 1.3
2017-Dec-03 12:05N 42°21' W 071°01'112.4
2017-Dec-03 12:00N 42°22' W 071°02'0 0.2
2017-Dec-03 11:29N 42°22' W 071°02'0 0.0
2017-Dec-03 11:00N 42°22' W 071°02'0 0.0
2017-Dec-03 10:30N 42°22' W 071°02'0 0.0
2017-Dec-03 10:00N 42°22' W 071°02'0 0.0
2017-Dec-03 09:30N 42°22' W 071°02'0 0.1
2017-Dec-03 09:17N 42°22' W 071°02'0 0.1
2017-Dec-03 08:58N 42°22' W 071°02'0 0.0
2017-Dec-03 08:36N 42°22' W 071°02'0 0.1
2017-Dec-03 08:30N 42°22' W 071°02'0 1.2
2017-Dec-03 08:30N 42°22' W 071°02'0 0.0
2017-Dec-03 08:00N 42°22' W 071°02'0 0.4
2017-Dec-03 07:57N 42°22' W 071°02'2 3.6
2017-Dec-03 07:30N 42°21' W 071°00'2745.2
2017-Dec-03 07:30N 42°22' W 071°02'5 9.5
2017-Dec-03 07:00N 42°22' W 070°56'5113.4
2017-Dec-03 06:58N 42°22' W 071°02'0 0.0
2017-Dec-03 06:30N 42°22' W 071°02'0 1.9
2017-Dec-03 06:30N 42°22' W 071°02'0 0.0
2017-Dec-03 06:00N 42°22' W 071°02'0 0.3
2017-Dec-03 05:57N 42°22' W 071°02'0 0.0
2017-Dec-03 05:30N 42°22' W 071°02'0 0.2
2017-Dec-03 05:25N 42°22' W 071°02'0 0.0
2017-Dec-03 05:00N 42°22' W 071°02'0 0.1
2017-Dec-03 04:46N 42°22' W 071°02'0 0.0
2017-Dec-03 04:30N 42°22' W 071°02'0 1.0
2017-Dec-03 04:29N 42°22' W 071°02'0 0.0
2017-Dec-03 04:00N 42°22' W 071°02'0 0.0
2017-Dec-03 03:29N 42°22' W 071°02'0 0.0
2017-Dec-03 02:59N 42°22' W 071°02'4 8.1
2017-Dec-03 02:31N 42°20' W 070°57'510.3
2017-Dec-03 02:00N 42°23' W 070°51'4 7.5
2017-Dec-03 01:30N 42°21' W 070°56'4 6.9
2017-Dec-03 00:54N 42°21' W 071°01'1 0.3
2017-Dec-02 21:02N 42°22' W 071°02'0 0.0
2017-Dec-02 20:51N 42°22' W 071°02'2 5.2
2017-Dec-02 20:24N 42°20' W 070°59'510.4
2017-Dec-02 19:58N 42°22' W 070°54'0 1.0
2017-Dec-02 19:30N 42°23' W 070°54'0 0.9
2017-Dec-02 19:00N 42°23' W 070°54'3 6.2
2017-Dec-02 18:28N 42°20' W 070°56'1 1.7
2017-Dec-02 17:58N 42°20' W 070°57'0 0.5
2017-Dec-02 17:27N 42°20' W 070°57'4 8.6
2017-Dec-02 17:00N 42°23' W 070°53'7 1.8
2017-Dec-02 13:19N 42°22' W 071°02'3 9.6
2017-Dec-02 12:59N 42°20' W 070°58'510.7
2017-Dec-02 12:30N 42°23' W 070°52'7 8.9
2017-Dec-02 11:43N 42°21' W 071°01'2 5.9
2017-Dec-02 11:24N 42°20' W 070°59'3 1.7
2017-Dec-02 09:52N 42°22' W 071°02'412.0
2017-Dec-02 09:30N 42°21' W 070°56'610.6
2017-Dec-02 08:59N 42°24' W 070°50'811.5
2017-Dec-02 08:19N 42°20' W 070°59'2 7.2
2017-Dec-02 07:59N 42°22' W 071°02'0 0.0
2017-Dec-02 07:30N 42°22' W 071°02'0 0.0
2017-Dec-02 06:59N 42°22' W 071°02'0 0.0
2017-Dec-02 06:30N 42°22' W 071°02'0 0.0
2017-Dec-02 06:00N 42°22' W 071°02'0 0.0
2017-Dec-02 05:30N 42°22' W 071°02'0 0.0
2017-Dec-02 05:00N 42°22' W 071°02'0 0.0
2017-Dec-02 04:30N 42°22' W 071°02'0 0.0
2017-Dec-02 04:00N 42°22' W 071°02'0 0.2
2017-Dec-02 03:55N 42°22' W 071°02'0 0.0
2017-Dec-02 03:27N 42°22' W 071°02'4101.9
2017-Dec-02 03:25N 42°20' W 070°58'715.7
2017-Dec-02 03:01N 42°24' W 070°50'911.8
2017-Dec-02 02:15N 42°21' W 071°01'1 5.0
2017-Dec-02 01:59N 42°22' W 071°02'0 0.0
2017-Dec-02 01:24N 42°22' W 071°02'0 0.0
2017-Dec-02 00:42N 42°22' W 071°02'0 0.0
2017-Dec-02 00:27N 42°22' W 071°02'0 0.0
2017-Dec-01 23:51N 42°22' W 071°02'0 0.0
2017-Dec-01 23:28N 42°22' W 071°02'0 0.0
2017-Dec-01 22:46N 42°22' W 071°02'0 0.0
2017-Dec-01 22:19N 42°22' W 071°02'0 0.0
2017-Dec-01 21:56N 42°22' W 071°02'0 0.2
2017-Dec-01 21:37N 42°22' W 071°02'214.2
2017-Dec-01 21:27N 42°20' W 070°59'2 6.0
2017-Dec-01 21:03N 42°22' W 071°02'0 0.0
2017-Dec-01 20:58N 42°22' W 071°02'682.1
2017-Dec-01 20:54N 42°22' W 070°54'1 3.7
2017-Dec-01 20:30N 42°23' W 070°52'610.5
2017-Dec-01 19:58N 42°20' W 070°59'320.2
2017-Dec-01 19:51N 42°22' W 071°02'412.3
2017-Dec-01 19:30N 42°21' W 070°56'442.6
2017-Dec-01 19:24N 42°22' W 071°02'716.6
2017-Dec-01 18:57N 42°24' W 070°52'712.5
2017-Dec-01 18:23N 42°21' W 071°01'  
Track history (hours):
 
Tides and Currents Weather Stations Pressure Air Temp Water Temp Dewpoint Dewpoint Depression Visibility Wind Speed Wind Dir Waves Ship Positions

Boston Pilot Mystic

Last reported at 2017-Dec-11 16:18 UTC. Time now 2017-Dec-12 04:20 UTC.
Position N 42°22' W 071°02'.

Length 16 m; draft 1.5 m.

Type: Pilot. MMSI: 367029020.

Date/timePositionNaut miles runAvg speedWind from/ knotsBaromVisibWave heightAir tempDewpointWater temp
2017-Dec-11 16:18N 42°22' W 071°02'0 0.0
2017-Dec-11 15:52N 42°22' W 071°02'0 0.0
2017-Dec-11 15:30N 42°22' W 071°02'0 0.0
2017-Dec-11 14:57N 42°22' W 071°02'0 0.0
2017-Dec-11 09:32N 42°22' W 071°02'0 0.0
2017-Dec-11 09:08N 42°22' W 071°02'0 0.0
2017-Dec-11 08:46N 42°22' W 071°02'0 0.0
2017-Dec-11 07:03N 42°22' W 071°02'0 0.1
2017-Dec-11 07:00N 42°22' W 071°02'0 0.0
2017-Dec-11 06:21N 42°22' W 071°02'0 0.0
2017-Dec-11 05:47N 42°22' W 071°02'0 0.0
2017-Dec-11 05:29N 42°22' W 071°02'0 0.0
2017-Dec-11 05:01N 42°22' W 071°02'0 0.0
2017-Dec-11 04:26N 42°22' W 071°02'0 0.0
2017-Dec-11 03:49N 42°22' W 071°02'0 0.0
2017-Dec-11 03:28N 42°22' W 071°02'0 0.0
2017-Dec-11 03:00N 42°22' W 071°02'0 0.0
2017-Dec-11 01:47N 42°22' W 071°02'0 0.0
2017-Dec-11 01:28N 42°22' W 071°02'0 0.0
2017-Dec-11 00:50N 42°22' W 071°02'0 0.0
2017-Dec-11 00:28N 42°22' W 071°02'0 0.0
2017-Dec-10 23:45N 42°22' W 071°02'0 0.0
2017-Dec-10 23:30N 42°22' W 071°02'0 0.0
2017-Dec-10 22:59N 42°22' W 071°02'1 2.7
2017-Dec-10 22:30N 42°21' W 071°01'612.0
2017-Dec-10 22:00N 42°23' W 070°54'619.3
2017-Dec-10 21:41N 42°22' W 071°02'314.4
2017-Dec-10 21:29N 42°20' W 070°59'3 5.5
2017-Dec-10 20:57N 42°22' W 071°02'0 0.0
2017-Dec-10 20:25N 42°22' W 071°02'0 0.0
2017-Dec-10 19:56N 42°22' W 071°02'0 0.0
2017-Dec-10 19:30N 42°22' W 071°02'710.6
2017-Dec-10 18:49N 42°25' W 070°53'410.3
2017-Dec-10 18:27N 42°21' W 070°56'4 9.4
2017-Dec-10 18:00N 42°21' W 071°01'1 2.3
2017-Dec-10 17:28N 42°22' W 071°02'0 0.0
2017-Dec-10 16:59N 42°22' W 071°02'0 0.0
2017-Dec-10 16:30N 42°22' W 071°02'0 0.0
2017-Dec-10 15:59N 42°22' W 071°02'0 0.0
2017-Dec-10 15:30N 42°22' W 071°02'0 0.0
2017-Dec-10 15:00N 42°22' W 071°02'0 0.0
2017-Dec-10 14:28N 42°22' W 071°02'0 0.0
2017-Dec-10 14:00N 42°22' W 071°02'0 0.0
2017-Dec-10 13:26N 42°22' W 071°02'0 0.0
2017-Dec-10 12:59N 42°22' W 071°02'5 7.9
2017-Dec-10 12:23N 42°21' W 070°55'511.7
2017-Dec-10 11:58N 42°22' W 071°02'744.6
2017-Dec-10 11:49N 42°24' W 070°53'712.0
2017-Dec-10 11:15N 42°22' W 071°02'1 5.9
2017-Dec-10 11:06N 42°21' W 071°01'1 9.5
2017-Dec-10 11:00N 42°22' W 071°02'0 0.3
2017-Dec-10 10:53N 42°22' W 071°02'0 0.0
2017-Dec-10 10:28N 42°22' W 071°02'0 0.1
2017-Dec-10 10:23N 42°22' W 071°02'0 0.0
2017-Dec-10 10:00N 42°22' W 071°02'0 0.0
2017-Dec-10 09:50N 42°22' W 071°02'0 0.0
2017-Dec-10 09:29N 42°22' W 071°02'0 0.0
2017-Dec-10 09:14N 42°22' W 071°02'0 0.0
2017-Dec-10 08:59N 42°22' W 071°02'0 0.0
2017-Dec-10 08:45N 42°22' W 071°02'0 0.0
2017-Dec-10 08:28N 42°22' W 071°02'0 0.3
2017-Dec-10 08:27N 42°22' W 071°02'7 9.3
2017-Dec-10 07:41N 42°23' W 070°52'310.7
2017-Dec-10 07:27N 42°24' W 070°49'910.0
2017-Dec-10 06:32N 42°21' W 071°01'1 0.9
2017-Dec-10 05:33N 42°22' W 071°02'0 0.0
2017-Dec-10 05:31N 42°22' W 071°02'0 0.0
2017-Dec-10 04:57N 42°22' W 071°02'0 0.0
2017-Dec-10 04:29N 42°22' W 071°02'0 0.0
2017-Dec-10 03:55N 42°22' W 071°02'0 0.0
2017-Dec-10 03:26N 42°22' W 071°02'0 0.0
2017-Dec-10 02:59N 42°22' W 071°02'0 0.0
2017-Dec-10 01:52N 42°22' W 071°02'0 0.0
2017-Dec-10 01:27N 42°22' W 071°02'0 0.0
2017-Dec-10 00:57N 42°22' W 071°02'0 0.0
2017-Dec-10 00:25N 42°22' W 071°02'0 0.0
2017-Dec-09 23:55N 42°22' W 071°02'0 0.0
2017-Dec-09 23:29N 42°22' W 071°02'0 0.0
2017-Dec-09 22:51N 42°22' W 071°02'0 0.0
2017-Dec-09 20:41N 42°22' W 071°02'5305.4
2017-Dec-09 20:40N 42°22' W 070°55'516.4
2017-Dec-09 20:20N 42°22' W 071°02'618.8
2017-Dec-09 20:02N 42°22' W 070°54'0 5.2
2017-Dec-09 20:00N 42°22' W 070°54'6154.4
2017-Dec-09 19:58N 42°22' W 071°02'0 0.0
2017-Dec-09 19:23N 42°22' W 071°02'0 0.0
2017-Dec-09 18:55N 42°22' W 071°02'1 6.7
2017-Dec-09 18:48N 42°21' W 071°01'1 3.0
2017-Dec-09 18:30N 42°22' W 071°02'0 0.1
2017-Dec-09 18:26N 42°22' W 071°02'0 0.0
2017-Dec-09 18:00N 42°22' W 071°02'0 0.1
2017-Dec-09 17:58N 42°22' W 071°02'0 0.0
2017-Dec-09 17:21N 42°22' W 071°02'0 0.1
2017-Dec-09 17:17N 42°22' W 071°02'0 0.2
2017-Dec-09 16:53N 42°22' W 071°02'1 2.1
2017-Dec-09 16:21N 42°21' W 071°01'1 0.8
2017-Dec-09 14:49N 42°22' W 071°02'0 0.2
2017-Dec-09 14:19N 42°22' W 071°02'0 0.3
2017-Dec-09 13:56N 42°22' W 071°02'5186.9
2017-Dec-09 13:54N 42°22' W 070°55'0 0.9
2017-Dec-09 13:30N 42°22' W 070°56'4119.6
2017-Dec-09 13:28N 42°22' W 071°02'1 2.5
2017-Dec-09 13:00N 42°21' W 071°01'147.9
2017-Dec-09 12:59N 42°22' W 071°02'0 0.0
2017-Dec-09 12:29N 42°22' W 071°02'0 0.0
2017-Dec-09 12:01N 42°22' W 071°02'0 0.0
2017-Dec-09 12:00N 42°22' W 071°02'0 0.1
2017-Dec-09 11:56N 42°22' W 071°02'1 2.1
2017-Dec-09 11:30N 42°22' W 071°03'1 1.4
2017-Dec-09 10:59N 42°22' W 071°02'0 2.9
2017-Dec-09 10:53N 42°22' W 071°02'0 0.0
2017-Dec-09 10:30N 42°22' W 071°02'0 0.4
2017-Dec-09 10:28N 42°22' W 071°02'0 0.0
2017-Dec-09 09:59N 42°22' W 071°02'0 0.0
2017-Dec-09 09:30N 42°22' W 071°02'0 0.0
2017-Dec-09 08:57N 42°22' W 071°02'0 0.0
2017-Dec-09 08:17N 42°22' W 071°02'0 0.0
2017-Dec-09 08:00N 42°22' W 071°02'0 0.0
2017-Dec-09 07:29N 42°22' W 071°02'0 0.0
2017-Dec-09 07:00N 42°22' W 071°02'3 6.3
2017-Dec-09 06:29N 42°20' W 070°58'4 6.6
2017-Dec-09 05:50N 42°23' W 070°53'2 5.1
2017-Dec-09 05:30N 42°23' W 070°51'711.8
2017-Dec-09 04:54N 42°21' W 071°00'1 1.5
2017-Dec-09 04:28N 42°20' W 070°59'511.1
2017-Dec-09 04:00N 42°23' W 070°54'2 3.7
2017-Dec-09 03:25N 42°22' W 070°56'510.3
2017-Dec-09 02:59N 42°21' W 071°02'0 0.4
2017-Dec-09 02:16N 42°22' W 071°02'0 0.0
2017-Dec-09 01:55N 42°22' W 071°02'0 0.0
2017-Dec-09 01:18N 42°22' W 071°02'0 0.0
2017-Dec-09 00:32N 42°22' W 071°02'0 0.0
2017-Dec-09 00:30N 42°22' W 071°02'0 0.0
2017-Dec-08 23:51N 42°22' W 071°02'0 0.0
2017-Dec-08 23:20N 42°22' W 071°02'0 0.0
2017-Dec-08 23:00N 42°22' W 071°02'0 0.0
2017-Dec-08 22:29N 42°22' W 071°02'0 0.0
2017-Dec-08 21:59N 42°22' W 071°02'0 0.0
2017-Dec-08 21:26N 42°22' W 071°02'0 0.0
2017-Dec-08 20:53N 42°22' W 071°02'0 0.0
2017-Dec-08 20:29N 42°22' W 071°02'0 0.0
2017-Dec-08 19:59N 42°22' W 071°02'3 5.0
2017-Dec-08 19:17N 42°20' W 070°58'3 7.2
2017-Dec-08 18:54N 42°22' W 070°55'1 2.2
2017-Dec-08 18:29N 42°22' W 070°56'3 7.1
2017-Dec-08 18:00N 42°24' W 070°52'8 6.9
2017-Dec-08 16:55N 42°21' W 071°02'1 1.1
2017-Dec-08 16:26N 42°22' W 071°02'0 0.0
2017-Dec-08 16:00N 42°22' W 071°02'0 0.0
2017-Dec-08 15:24N 42°22' W 071°02'0 0.0
2017-Dec-08 15:00N 42°22' W 071°02'0 0.0
2017-Dec-08 14:30N 42°22' W 071°02'0 0.0
2017-Dec-08 14:00N 42°22' W 071°02'0 0.0
2017-Dec-08 13:30N 42°22' W 071°02'1 2.8
2017-Dec-08 13:00N 42°23' W 071°03'3 4.9
2017-Dec-08 12:29N 42°21' W 071°01'5 6.6
2017-Dec-08 11:48N 42°22' W 070°55'2 6.0
2017-Dec-08 11:30N 42°23' W 070°54'3 6.8
2017-Dec-08 11:00N 42°23' W 070°49'5 9.2
2017-Dec-08 10:25N 42°21' W 070°56'410.5
2017-Dec-08 10:01N 42°21' W 071°02'0 0.8
2017-Dec-08 09:30N 42°22' W 071°02'0 0.0
2017-Dec-08 09:00N 42°22' W 071°02'0 0.0
2017-Dec-08 08:22N 42°22' W 071°02'0 0.0
2017-Dec-08 07:57N 42°22' W 071°02'0 0.0
2017-Dec-08 07:29N 42°22' W 071°02'0 0.0
2017-Dec-08 06:58N 42°22' W 071°02'3 7.3
2017-Dec-08 06:30N 42°20' W 070°58'6 9.8
2017-Dec-08 05:56N 42°24' W 070°52'1 2.1
2017-Dec-08 05:30N 42°23' W 070°52'2 4.3
2017-Dec-08 04:57N 42°22' W 070°55'3 7.7
2017-Dec-08 04:30N 42°24' W 070°51'4 7.7
2017-Dec-08 03:59N 42°22' W 070°55'4 9.4
2017-Dec-08 03:31N 42°21' W 071°01'1 1.3
2017-Dec-08 02:28N 42°22' W 071°02'0 0.0
2017-Dec-08 02:00N 42°22' W 071°02'0 0.1
2017-Dec-08 01:48N 42°22' W 071°02'0 0.1
2017-Dec-08 01:30N 42°22' W 071°02'0 1.4
2017-Dec-08 01:29N 42°22' W 071°02'0 0.0
2017-Dec-08 00:58N 42°22' W 071°02'0 1.1
2017-Dec-08 00:57N 42°22' W 071°02'0 0.0
2017-Dec-08 00:27N 42°22' W 071°02'0 0.1
2017-Dec-08 00:16N 42°22' W 071°02'0 0.0
2017-Dec-07 23:55N 42°22' W 071°02'0 0.8
2017-Dec-07 23:54N 42°22' W 071°02'0 0.0
2017-Dec-07 23:26N 42°22' W 071°02'0 0.1
2017-Dec-07 23:10N 42°22' W 071°02'0 0.0
2017-Dec-07 22:56N 42°22' W 071°02'0 0.1
2017-Dec-07 22:49N 42°22' W 071°02'0 0.0
2017-Dec-07 22:23N 42°22' W 071°02'0 0.2
2017-Dec-07 22:16N 42°22' W 071°02'0 0.0
2017-Dec-07 21:56N 42°22' W 071°02'021.6
2017-Dec-07 21:56N 42°22' W 071°02'0 0.0
2017-Dec-07 21:29N 42°22' W 071°02'0 0.0
2017-Dec-07 21:00N 42°22' W 071°02'0 0.0
2017-Dec-07 15:05N 42°22' W 071°02'0 0.0
2017-Dec-07 14:44N 42°22' W 071°02'0 0.0
2017-Dec-07 14:27N 42°22' W 071°02'0 0.0
2017-Dec-07 13:58N 42°22' W 071°02'0 0.0
2017-Dec-07 13:22N 42°22' W 071°02'0 0.0
2017-Dec-07 12:56N 42°22' W 071°02'0 0.8
2017-Dec-07 12:55N 42°22' W 071°02'0 0.0
2017-Dec-07 12:24N 42°22' W 071°02'013.0
2017-Dec-07 12:24N 42°22' W 071°02'0 0.0
2017-Dec-07 12:00N 42°22' W 071°02'0 0.0
2017-Dec-07 11:28N 42°22' W 071°02'0 0.0
2017-Dec-07 11:06N 42°22' W 071°02'0 0.0
2017-Dec-07 10:52N 42°22' W 071°02'0 0.3
2017-Dec-07 10:48N 42°22' W 071°02'0 0.0
2017-Dec-07 10:29N 42°22' W 071°02'0 0.0
2017-Dec-07 08:59N 42°22' W 071°02'0 0.0
2017-Dec-07 07:46N 42°22' W 071°02'0 0.0
2017-Dec-07 07:08N 42°22' W 071°02'0 0.0
2017-Dec-07 06:54N 42°22' W 071°02'0 0.0
2017-Dec-07 06:25N 42°22' W 071°02'0 0.0
2017-Dec-07 05:55N 42°22' W 071°02'0 0.0
2017-Dec-07 05:30N 42°22' W 071°02'0 0.1
2017-Dec-07 05:18N 42°22' W 071°02'0 0.0
2017-Dec-07 04:59N 42°22' W 071°02'0 0.8
2017-Dec-07 04:58N 42°22' W 071°02'0 0.0
2017-Dec-07 04:29N 42°22' W 071°02'611.6
2017-Dec-07 03:59N 42°22' W 070°54'4 6.1
2017-Dec-07 03:24N 42°20' W 070°58'386.6
2017-Dec-07 03:22N 42°22' W 071°02'0 0.0
2017-Dec-07 02:56N 42°22' W 071°02'0 0.0
2017-Dec-07 02:24N 42°22' W 071°02'0 0.0
2017-Dec-07 02:03N 42°22' W 071°02'0 0.0
2017-Dec-07 01:53N 42°22' W 071°02'0 0.0
2017-Dec-07 01:21N 42°22' W 071°02'0 0.0
2017-Dec-07 01:03N 42°22' W 071°02'0 4.9
2017-Dec-07 01:00N 42°22' W 071°02'611.3
2017-Dec-07 00:30N 42°22' W 070°54'510.3
2017-Dec-07 00:00N 42°20' W 071°00'2 4.6
2017-Dec-06 23:35N 42°22' W 071°02'0 0.2
2017-Dec-06 23:30N 42°22' W 071°02'0 0.1
2017-Dec-06 23:21N 42°22' W 071°02'0 0.0
2017-Dec-06 22:58N 42°22' W 071°02'0 0.3
2017-Dec-06 22:54N 42°22' W 071°02'0 0.0
2017-Dec-06 22:23N 42°22' W 071°02'0 0.0
2017-Dec-06 21:39N 42°22' W 071°02'0 0.0
2017-Dec-06 21:06N 42°22' W 071°02'0 0.0
2017-Dec-06 21:00N 42°22' W 071°02'  
2017-Dec-04 10:30N 42°24' W 070°54'617.1
2017-Dec-04 10:09N 42°22' W 071°02'534.8
2017-Dec-04 10:00N 42°23' W 070°55'592.4
2017-Dec-04 09:56N 42°22' W 071°02'613.2
2017-Dec-04 09:30N 42°24' W 070°55'631.8
2017-Dec-04 09:20N 42°22' W 071°02'617.8
2017-Dec-04 09:00N 42°24' W 070°55'6171.4
2017-Dec-04 08:58N 42°22' W 071°02'612.5
2017-Dec-04 08:30N 42°24' W 070°55'677.7
2017-Dec-04 08:26N 42°22' W 071°02'613.8
2017-Dec-04 08:00N 42°25' W 070°55'2 3.5
2017-Dec-04 07:30N 42°25' W 070°53'2 4.8
2017-Dec-04 07:00N 42°24' W 070°50'2 4.1
2017-Dec-04 06:29N 42°23' W 070°52'714.0
2017-Dec-04 06:00N 42°21' W 071°01'1 1.3
2017-Dec-04 05:06N 42°22' W 071°02'0 0.0
2017-Dec-04 04:59N 42°22' W 071°02'0 0.0
2017-Dec-04 04:30N 42°22' W 071°02'0 0.0
2017-Dec-04 03:56N 42°22' W 071°02'0 0.0
2017-Dec-04 03:21N 42°22' W 071°02'0 0.0
2017-Dec-04 03:07N 42°22' W 071°02'327.8
2017-Dec-04 03:00N 42°20' W 070°58'310.4
2017-Dec-04 02:42N 42°22' W 071°02'523.2
2017-Dec-04 02:30N 42°21' W 070°56'527.1
2017-Dec-04 02:20N 42°22' W 071°02'0 0.3
2017-Dec-04 02:00N 42°22' W 071°02'0 0.2
2017-Dec-04 01:28N 42°22' W 071°02'0 0.0
2017-Dec-04 01:01N 42°22' W 071°02'0 0.0
2017-Dec-04 00:25N 42°22' W 071°02'0 0.0
2017-Dec-03 23:59N 42°22' W 071°02'0 0.0
2017-Dec-03 23:26N 42°22' W 071°02'0 0.0
2017-Dec-03 22:42N 42°22' W 071°02'0 0.0
2017-Dec-03 22:14N 42°22' W 071°02'0 0.0
2017-Dec-03 21:58N 42°22' W 071°02'6 4.9
2017-Dec-03 20:42N 42°19' W 070°55'315.6
2017-Dec-03 20:30N 42°20' W 070°51'5 9.1
2017-Dec-03 20:00N 42°20' W 070°57'4 1.1
2017-Dec-03 16:22N 42°22' W 071°02'0 0.1
2017-Dec-03 14:47N 42°22' W 071°02'0 0.4
2017-Dec-03 14:44N 42°22' W 071°02'0 0.0
2017-Dec-03 14:30N 42°22' W 071°02'0 0.2
2017-Dec-03 14:23N 42°22' W 071°02'0 0.0
2017-Dec-03 13:59N 42°22' W 071°02'0 1.7
2017-Dec-03 13:59N 42°22' W 071°02'0 0.5
2017-Dec-03 13:30N 42°22' W 071°02'0 9.7
2017-Dec-03 13:29N 42°22' W 071°02'816.4
2017-Dec-03 13:00N 42°23' W 070°51'8461.4
2017-Dec-03 12:59N 42°22' W 071°02'1 1.3
2017-Dec-03 12:05N 42°21' W 071°01'112.4
2017-Dec-03 12:00N 42°22' W 071°02'0 0.2
2017-Dec-03 11:29N 42°22' W 071°02'0 0.0
2017-Dec-03 11:00N 42°22' W 071°02'0 0.0
2017-Dec-03 10:30N 42°22' W 071°02'0 0.0
2017-Dec-03 10:00N 42°22' W 071°02'0 0.0
2017-Dec-03 09:30N 42°22' W 071°02'0 0.1
2017-Dec-03 09:17N 42°22' W 071°02'0 0.1
2017-Dec-03 08:58N 42°22' W 071°02'0 0.0
2017-Dec-03 08:36N 42°22' W 071°02'0 0.1
2017-Dec-03 08:30N 42°22' W 071°02'0 1.2
2017-Dec-03 08:30N 42°22' W 071°02'0 0.0
2017-Dec-03 08:00N 42°22' W 071°02'0 0.4
2017-Dec-03 07:57N 42°22' W 071°02'2 3.6
2017-Dec-03 07:30N 42°21' W 071°00'2745.2
2017-Dec-03 07:30N 42°22' W 071°02'5 9.5
2017-Dec-03 07:00N 42°22' W 070°56'5113.4
2017-Dec-03 06:58N 42°22' W 071°02'0 0.0
2017-Dec-03 06:30N 42°22' W 071°02'0 1.9
2017-Dec-03 06:30N 42°22' W 071°02'0 0.0
2017-Dec-03 06:00N 42°22' W 071°02'0 0.3
2017-Dec-03 05:57N 42°22' W 071°02'0 0.0
2017-Dec-03 05:30N 42°22' W 071°02'0 0.2
2017-Dec-03 05:25N 42°22' W 071°02'0 0.0
2017-Dec-03 05:00N 42°22' W 071°02'0 0.1
2017-Dec-03 04:46N 42°22' W 071°02'0 0.0
2017-Dec-03 04:30N 42°22' W 071°02'0 1.0
2017-Dec-03 04:29N 42°22' W 071°02'0 0.0
2017-Dec-03 04:00N 42°22' W 071°02'0 0.0
2017-Dec-03 03:29N 42°22' W 071°02'0 0.0
2017-Dec-03 02:59N 42°22' W 071°02'4 8.1
2017-Dec-03 02:31N 42°20' W 070°57'510.3
2017-Dec-03 02:00N 42°23' W 070°51'4 7.5
2017-Dec-03 01:30N 42°21' W 070°56'4 6.9
2017-Dec-03 00:54N 42°21' W 071°01'1 0.3
2017-Dec-02 21:02N 42°22' W 071°02'0 0.0
2017-Dec-02 20:51N 42°22' W 071°02'2 5.2
2017-Dec-02 20:24N 42°20' W 070°59'510.4
2017-Dec-02 19:58N 42°22' W 070°54'0 1.0
2017-Dec-02 19:30N 42°23' W 070°54'0 0.9
2017-Dec-02 19:00N 42°23' W 070°54'3 6.2
2017-Dec-02 18:28N 42°20' W 070°56'1 1.7
2017-Dec-02 17:58N 42°20' W 070°57'0 0.5
2017-Dec-02 17:27N 42°20' W 070°57'4 8.6
2017-Dec-02 17:00N 42°23' W 070°53'7 1.8
2017-Dec-02 13:19N 42°22' W 071°02'3 9.6
2017-Dec-02 12:59N 42°20' W 070°58'510.7
2017-Dec-02 12:30N 42°23' W 070°52'7 8.9
2017-Dec-02 11:43N 42°21' W 071°01'2 5.9
2017-Dec-02 11:24N 42°20' W 070°59'3 1.7
2017-Dec-02 09:52N 42°22' W 071°02'412.0
2017-Dec-02 09:30N 42°21' W 070°56'610.6
2017-Dec-02 08:59N 42°24' W 070°50'811.5
2017-Dec-02 08:19N 42°20' W 070°59'2 7.2
2017-Dec-02 07:59N 42°22' W 071°02'0 0.0
2017-Dec-02 07:30N 42°22' W 071°02'0 0.0
2017-Dec-02 06:59N 42°22' W 071°02'0 0.0
2017-Dec-02 06:30N 42°22' W 071°02'0 0.0
2017-Dec-02 06:00N 42°22' W 071°02'0 0.0
2017-Dec-02 05:30N 42°22' W 071°02'0 0.0
2017-Dec-02 05:00N 42°22' W 071°02'0 0.0
2017-Dec-02 04:30N 42°22' W 071°02'0 0.0
2017-Dec-02 04:00N 42°22' W 071°02'0 0.2
2017-Dec-02 03:55N 42°22' W 071°02'0 0.0
2017-Dec-02 03:27N 42°22' W 071°02'4101.9
2017-Dec-02 03:25N 42°20' W 070°58'715.7
2017-Dec-02 03:01N 42°24' W 070°50'911.8
2017-Dec-02 02:15N 42°21' W 071°01'1 5.0
2017-Dec-02 01:59N 42°22' W 071°02'0 0.0
2017-Dec-02 01:24N 42°22' W 071°02'0 0.0
2017-Dec-02 00:42N 42°22' W 071°02'0 0.0
2017-Dec-02 00:27N 42°22' W 071°02'0 0.0
2017-Dec-01 23:51N 42°22' W 071°02'0 0.0
2017-Dec-01 23:28N 42°22' W 071°02'0 0.0
2017-Dec-01 22:46N 42°22' W 071°02'0 0.0
2017-Dec-01 22:19N 42°22' W 071°02'0 0.0
2017-Dec-01 21:56N 42°22' W 071°02'0 0.2
2017-Dec-01 21:37N 42°22' W 071°02'214.2
2017-Dec-01 21:27N 42°20' W 070°59'2 6.0
2017-Dec-01 21:03N 42°22' W 071°02'0 0.0
2017-Dec-01 20:58N 42°22' W 071°02'682.1
2017-Dec-01 20:54N 42°22' W 070°54'1 3.7
2017-Dec-01 20:30N 42°23' W 070°52'610.5
2017-Dec-01 19:58N 42°20' W 070°59'320.2
2017-Dec-01 19:51N 42°22' W 071°02'412.3
2017-Dec-01 19:30N 42°21' W 070°56'442.6
2017-Dec-01 19:24N 42°22' W 071°02'716.6
2017-Dec-01 18:57N 42°24' W 070°52'712.5
2017-Dec-01 18:23N 42°21' W 071°01'  

Dump ship's entire track history